createdAt,value
2019-01-24T00:00:53.049Z,0
2019-01-24T00:03:30.548Z,0
2019-01-24T00:06:31.047Z,0
2019-01-24T00:09:35.742Z,0
2019-01-24T00:12:31.095Z,0
2019-01-24T00:15:30.510Z,0
2019-01-24T00:18:31.120Z,0
2019-01-24T00:21:30.660Z,0
2019-01-24T00:24:31.175Z,0
2019-01-24T00:27:30.436Z,0
2019-01-24T00:30:30.759Z,0
2019-01-24T00:33:31.346Z,0
2019-01-24T00:36:36.243Z,0
2019-01-24T00:39:30.503Z,0
2019-01-24T00:42:30.834Z,0
2019-01-24T00:45:30.271Z,0
2019-01-24T00:48:30.622Z,0
2019-01-24T00:51:30.959Z,0
2019-01-24T00:54:31.768Z,0
2019-01-24T00:57:30.995Z,0
2019-01-24T01:00:30.993Z,0
2019-01-24T01:03:30.743Z,0
2019-01-24T01:06:31.250Z,0
2019-01-24T01:09:30.427Z,0
2019-01-24T01:12:30.735Z,0
2019-01-24T01:15:31.064Z,0
2019-01-24T01:18:30.560Z,0
2019-01-24T01:21:30.860Z,0
2019-01-24T01:24:30.607Z,0
2019-01-24T01:27:31.201Z,0
2019-01-24T01:30:30.633Z,0
2019-01-24T01:33:30.843Z,0
2019-01-24T01:36:30.321Z,0
2019-01-24T01:39:30.684Z,0
2019-01-24T01:42:30.972Z,0
2019-01-24T01:45:30.487Z,0
2019-01-24T01:48:30.908Z,0
2019-01-24T01:51:30.212Z,0
2019-01-24T01:54:30.458Z,0
2019-01-24T01:57:30.773Z,0
2019-01-24T02:00:31.138Z,0
2019-01-24T02:03:30.941Z,0
2019-01-24T02:06:30.672Z,0
2019-01-24T02:09:31.176Z,0
2019-01-24T02:12:30.545Z,0
2019-01-24T02:15:31.019Z,0
2019-01-24T02:18:30.475Z,0
2019-01-24T02:21:30.765Z,0
2019-01-24T02:24:31.361Z,0
2019-01-24T02:27:30.748Z,0
2019-01-24T02:30:33.555Z,0
2019-01-24T02:33:32.560Z,0
2019-01-24T02:36:30.935Z,0
2019-01-24T02:39:30.404Z,0
2019-01-24T02:42:30.800Z,0
2019-01-24T02:45:30.286Z,0
2019-01-24T02:48:30.521Z,0
2019-01-24T02:51:31.276Z,0
2019-01-24T02:54:30.600Z,0
2019-01-24T02:57:30.843Z,0
2019-01-24T03:00:30.236Z,0
2019-01-24T03:03:30.603Z,0
2019-01-24T03:06:31.243Z,0
2019-01-24T03:09:30.842Z,0
2019-01-24T03:12:30.275Z,0
2019-01-24T03:15:30.663Z,0
2019-01-24T03:18:30.980Z,0
2019-01-24T03:21:30.266Z,0
2019-01-24T03:24:30.947Z,0
2019-01-24T03:27:30.285Z,0
2019-01-24T03:30:30.610Z,0
2019-01-24T03:33:31.575Z,0
2019-01-24T03:36:31.011Z,0
2019-01-24T03:39:30.623Z,0
2019-01-24T03:42:31.069Z,0
2019-01-24T03:45:30.472Z,0
2019-01-24T03:48:30.921Z,0
2019-01-24T03:51:30.308Z,0
2019-01-24T03:54:30.793Z,0
2019-01-24T03:57:31.183Z,0
2019-01-24T04:00:31.045Z,0
2019-01-24T04:03:31.071Z,0
2019-01-24T04:06:30.559Z,0
2019-01-24T04:09:30.983Z,0
2019-01-24T04:12:30.231Z,0
2019-01-24T04:15:30.803Z,0
2019-01-24T04:18:30.333Z,0
2019-01-24T04:21:31.068Z,0
2019-01-24T04:24:30.524Z,0
2019-01-24T04:27:31.163Z,0
2019-01-24T04:30:30.837Z,0
2019-01-24T04:33:30.411Z,0
2019-01-24T04:36:31.191Z,0
2019-01-24T04:39:30.595Z,0
2019-01-24T04:42:30.999Z,0
2019-01-24T04:45:30.458Z,0
2019-01-24T04:48:30.624Z,0
2019-01-24T04:51:31.003Z,0
2019-01-24T04:54:30.790Z,0
2019-01-24T04:57:31.119Z,0
2019-01-24T05:00:33.567Z,0
2019-01-24T05:03:31.586Z,0
2019-01-24T05:06:31.015Z,0
2019-01-24T05:09:31.055Z,0
2019-01-24T05:12:35.622Z,0
2019-01-24T05:15:31.104Z,0
2019-01-24T05:18:30.652Z,0
2019-01-24T05:21:30.913Z,0
2019-01-24T05:24:35.644Z,0
2019-01-24T05:27:33.143Z,0
2019-01-24T05:30:34.738Z,0
2019-01-24T05:33:33.153Z,0
2019-01-24T05:36:30.938Z,0
2019-01-24T05:39:30.470Z,0
2019-01-24T05:42:30.792Z,0
2019-01-24T05:45:30.332Z,0
2019-01-24T05:48:30.793Z,0
2019-01-24T05:51:30.174Z,0
2019-01-24T05:54:31.186Z,0
2019-01-24T05:57:30.798Z,0
2019-01-24T06:00:43.262Z,0
2019-01-24T06:03:30.969Z,0
2019-01-24T06:06:30.567Z,0
2019-01-24T06:09:30.923Z,0
2019-01-24T06:12:31.439Z,0
2019-01-24T06:15:31.418Z,0
2019-01-24T06:18:31.245Z,0
2019-01-24T06:21:30.723Z,0
2019-01-24T06:24:31.171Z,0
2019-01-24T06:27:30.731Z,0
2019-01-24T06:30:31.461Z,0
2019-01-24T06:33:31.254Z,0
2019-01-24T06:36:30.704Z,0
2019-01-24T06:39:31.368Z,0
2019-01-24T06:42:31.096Z,0
2019-01-24T06:45:30.946Z,1
2019-01-24T06:48:30.644Z,2
2019-01-24T06:51:31.149Z,2
2019-01-24T06:54:30.726Z,5
2019-01-24T06:57:31.348Z,8
2019-01-24T07:00:30.756Z,13
2019-01-24T07:03:31.540Z,20
2019-01-24T07:06:31.133Z,28
2019-01-24T07:09:30.591Z,42
2019-01-24T07:12:31.057Z,60
2019-01-24T07:15:30.556Z,80
2019-01-24T07:18:30.974Z,102
2019-01-24T07:21:30.470Z,122
2019-01-24T07:24:31.153Z,138
2019-01-24T07:27:30.668Z,150
2019-01-24T07:30:31.153Z,178
2019-01-24T07:33:30.433Z,200
2019-01-24T07:36:31.004Z,217
2019-01-24T07:39:30.298Z,235
2019-01-24T07:42:30.780Z,243
2019-01-24T07:45:34.248Z,279
2019-01-24T07:48:30.641Z,332
2019-01-24T07:51:31.540Z,401
2019-01-24T07:54:31.280Z,443
2019-01-24T07:57:30.657Z,499
2019-01-24T08:00:31.212Z,541
2019-01-24T08:03:30.724Z,586
2019-01-24T08:06:31.180Z,635
2019-01-24T08:09:30.636Z,684
2019-01-24T08:12:31.116Z,756
2019-01-24T08:15:31.612Z,785
2019-01-24T08:18:31.106Z,808
2019-01-24T08:21:30.526Z,871
2019-01-24T08:24:31.097Z,1012
2019-01-24T08:27:30.471Z,1075
2019-01-24T08:30:33.817Z,1090
2019-01-24T08:33:30.297Z,1128
2019-01-24T08:36:31.093Z,1182
2019-01-24T08:39:32.021Z,1290
2019-01-24T08:42:30.386Z,1444
2019-01-24T08:45:30.767Z,1456
2019-01-24T08:48:31.264Z,1714
2019-01-24T08:51:30.768Z,1942
2019-01-24T08:54:31.240Z,1828
2019-01-24T08:57:30.536Z,1704
2019-01-24T09:00:31.183Z,1598
2019-01-24T09:03:30.697Z,1565
2019-01-24T09:06:38.109Z,1732
2019-01-24T09:09:30.443Z,1969
2019-01-24T09:12:32.923Z,2057
2019-01-24T09:15:31.610Z,2300
2019-01-24T09:18:31.226Z,2302
2019-01-24T09:21:30.845Z,2131
2019-01-24T09:24:30.248Z,2055
2019-01-24T09:27:30.669Z,2016
2019-01-24T09:30:31.767Z,1999
2019-01-24T09:33:31.130Z,2173
2019-01-24T09:36:31.763Z,2315
2019-01-24T09:39:31.188Z,2307
2019-01-24T09:42:30.723Z,2512
2019-01-24T09:45:32.997Z,2377
2019-01-24T09:48:30.460Z,2440
2019-01-24T09:51:31.165Z,2678
2019-01-24T09:54:30.553Z,2962
2019-01-24T09:57:30.881Z,2952
2019-01-24T10:00:33.308Z,3107
2019-01-24T10:03:30.810Z,3648
2019-01-24T10:06:36.090Z,3904
2019-01-24T10:09:30.912Z,3872
2019-01-24T10:12:30.532Z,3821
2019-01-24T10:15:31.596Z,4163
2019-01-24T10:18:37.502Z,4008
2019-01-24T10:21:30.959Z,4031
2019-01-24T10:24:30.352Z,4158
2019-01-24T10:27:30.769Z,3488
2019-01-24T10:30:31.357Z,3322
2019-01-24T10:33:30.835Z,3145
2019-01-24T10:36:30.162Z,3276
2019-01-24T10:39:30.717Z,3385
2019-01-24T10:42:31.283Z,3365
2019-01-24T10:45:30.795Z,3202
2019-01-24T10:48:30.268Z,3072
2019-01-24T10:51:30.574Z,2938
2019-01-24T10:54:31.305Z,2688
2019-01-24T10:57:30.960Z,2718
2019-01-24T11:00:32.965Z,2765
2019-01-24T11:03:30.441Z,2795
2019-01-24T11:06:30.869Z,3042
2019-01-24T11:09:30.399Z,3292
2019-01-24T11:12:30.942Z,3457
2019-01-24T11:15:30.389Z,3608
2019-01-24T11:18:30.753Z,3771
2019-01-24T11:21:31.351Z,3954
2019-01-24T11:24:30.904Z,4186
2019-01-24T11:27:30.387Z,4141
2019-01-24T11:30:32.040Z,4318
2019-01-24T11:33:30.448Z,4351
2019-01-24T11:36:30.892Z,4298
2019-01-24T11:39:30.271Z,4238
2019-01-24T11:42:30.651Z,4032
2019-01-24T11:45:34.979Z,4048
2019-01-24T11:48:30.267Z,4212
2019-01-24T11:51:30.510Z,4666
2019-01-24T11:54:30.898Z,4272
2019-01-24T11:57:30.466Z,4032
2019-01-24T12:00:34.782Z,4259
2019-01-24T12:03:31.175Z,4568
2019-01-24T12:06:30.718Z,4802
2019-01-24T12:09:31.307Z,4784
2019-01-24T12:12:30.741Z,4505
2019-01-24T12:15:31.469Z,4331
2019-01-24T12:18:31.107Z,4164
2019-01-24T12:21:31.043Z,3937
2019-01-24T12:24:30.497Z,3708
2019-01-24T12:27:31.299Z,3646
2019-01-24T12:30:32.809Z,3404
2019-01-24T12:33:30.203Z,3096
2019-01-24T12:36:30.573Z,2830
2019-01-24T12:39:30.812Z,2350
2019-01-24T12:42:30.016Z,1978
2019-01-24T12:45:32.361Z,1796
2019-01-24T12:48:30.701Z,1762
2019-01-24T12:51:30.991Z,1747
2019-01-24T12:54:30.449Z,1717
2019-01-24T12:57:30.944Z,1587
2019-01-24T13:00:32.736Z,1674
2019-01-24T13:03:31.288Z,1589
2019-01-24T13:06:30.648Z,1777
2019-01-24T13:09:30.999Z,1808
2019-01-24T13:12:30.180Z,1530
2019-01-24T13:15:32.390Z,1412
2019-01-24T13:18:30.846Z,1352
2019-01-24T13:21:30.421Z,1237
2019-01-24T13:24:30.715Z,1249
2019-01-24T13:27:31.206Z,1314
2019-01-24T13:30:32.927Z,1526
2019-01-24T13:33:30.537Z,1532
2019-01-24T13:36:31.008Z,1403
2019-01-24T13:39:30.427Z,1338
2019-01-24T13:42:30.788Z,1283
2019-01-24T13:45:37.978Z,1180
2019-01-24T13:48:30.443Z,1078
2019-01-24T13:51:30.825Z,1029
2019-01-24T13:54:30.229Z,985
2019-01-24T13:57:30.697Z,1078
2019-01-24T14:00:33.832Z,1078
2019-01-24T14:03:44.745Z,999
2019-01-24T14:06:31.256Z,1118
2019-01-24T14:09:30.692Z,1091
2019-01-24T14:12:31.431Z,998
2019-01-24T14:15:31.139Z,1036
2019-01-24T14:18:30.569Z,1061
2019-01-24T14:21:31.116Z,1062
2019-01-24T14:24:30.916Z,1188
2019-01-24T14:27:30.798Z,1173
2019-01-24T14:30:30.299Z,1210
2019-01-24T14:33:31.223Z,1185
2019-01-24T14:36:31.108Z,1153
2019-01-24T14:39:30.526Z,1065
2019-01-24T14:42:31.076Z,1008
2019-01-24T14:45:30.570Z,968
2019-01-24T14:48:30.922Z,884
2019-01-24T14:51:30.606Z,782
2019-01-24T14:54:31.247Z,745
2019-01-24T14:57:30.700Z,662
2019-01-24T15:00:33.901Z,592
2019-01-24T15:03:35.366Z,520
2019-01-24T15:06:30.735Z,486
2019-01-24T15:09:31.214Z,428
2019-01-24T15:12:30.696Z,435
2019-01-24T15:15:31.311Z,471
2019-01-24T15:18:31.011Z,435
2019-01-24T15:21:30.480Z,372
2019-01-24T15:24:30.970Z,402
2019-01-24T15:27:30.390Z,405
2019-01-24T15:30:30.962Z,358
2019-01-24T15:33:31.400Z,328
2019-01-24T15:36:31.542Z,267
2019-01-24T15:39:31.233Z,212
2019-01-24T15:42:31.721Z,169
2019-01-24T15:45:31.356Z,145
2019-01-24T15:48:31.202Z,118
2019-01-24T15:51:30.718Z,92
2019-01-24T15:54:31.077Z,80
2019-01-24T15:57:31.063Z,69
2019-01-24T16:00:32.900Z,56
2019-01-24T16:03:30.323Z,42
2019-01-24T16:06:30.828Z,32
2019-01-24T16:09:30.356Z,25
2019-01-24T16:12:30.748Z,18
2019-01-24T16:15:33.874Z,12
2019-01-24T16:18:30.406Z,8
2019-01-24T16:21:30.754Z,7
2019-01-24T16:24:31.214Z,4
2019-01-24T16:27:30.847Z,3
2019-01-24T16:30:32.373Z,2
2019-01-24T16:33:30.939Z,2
2019-01-24T16:36:30.217Z,1
2019-01-24T16:39:30.612Z,0
2019-01-24T16:42:31.208Z,0
2019-01-24T16:45:32.266Z,0
2019-01-24T16:48:30.881Z,0
2019-01-24T16:51:30.643Z,0
2019-01-24T16:54:30.999Z,0
2019-01-24T16:57:30.346Z,0
2019-01-24T17:00:41.232Z,0
2019-01-24T17:03:32.463Z,0
2019-01-24T17:06:31.197Z,0
2019-01-24T17:09:30.626Z,0
2019-01-24T17:12:31.108Z,0
2019-01-24T17:15:30.792Z,0
2019-01-24T17:18:30.474Z,0
2019-01-24T17:21:30.915Z,0
2019-01-24T17:24:30.648Z,0
2019-01-24T17:27:31.146Z,0
2019-01-24T17:30:31.916Z,0
2019-01-24T17:33:30.242Z,0
2019-01-24T17:36:30.643Z,0
2019-01-24T17:39:31.018Z,0
2019-01-24T17:42:30.279Z,0
2019-01-24T17:45:32.037Z,0
2019-01-24T17:48:30.718Z,0
2019-01-24T17:51:31.212Z,0
2019-01-24T17:54:30.529Z,0
2019-01-24T17:57:30.833Z,0
2019-01-24T18:00:32.227Z,0
2019-01-24T18:03:30.762Z,0
2019-01-24T18:06:31.625Z,0
2019-01-24T18:09:30.929Z,0
2019-01-24T18:12:30.371Z,0
2019-01-24T18:15:32.721Z,0
2019-01-24T18:18:30.202Z,0
2019-01-24T18:21:30.580Z,0
2019-01-24T18:24:30.851Z,0
2019-01-24T18:27:30.429Z,0
2019-01-24T18:30:31.840Z,0
2019-01-24T18:33:31.016Z,0
2019-01-24T18:36:30.745Z,0
2019-01-24T18:39:31.117Z,0
2019-01-24T18:42:30.438Z,0
2019-01-24T18:45:34.023Z,0
2019-01-24T18:48:30.377Z,0
2019-01-24T18:51:30.799Z,0
2019-01-24T18:54:30.229Z,0
2019-01-24T18:57:30.933Z,0
2019-01-24T19:00:38.057Z,0
2019-01-24T19:03:30.459Z,0
2019-01-24T19:06:30.934Z,0
2019-01-24T19:09:32.011Z,0
2019-01-24T19:12:31.047Z,0
2019-01-24T19:15:30.669Z,0
2019-01-24T19:18:31.168Z,0
2019-01-24T19:21:30.683Z,0
2019-01-24T19:24:31.625Z,0
2019-01-24T19:27:31.205Z,0
2019-01-24T19:30:32.854Z,0
2019-01-24T19:33:30.131Z,0
2019-01-24T19:36:30.615Z,0
2019-01-24T19:39:30.953Z,0
2019-01-24T19:42:30.701Z,0
2019-01-24T19:45:31.421Z,0
2019-01-24T19:48:30.921Z,0
2019-01-24T19:51:31.027Z,0
2019-01-24T19:54:30.506Z,0
2019-01-24T19:57:30.943Z,0
2019-01-24T20:00:32.515Z,0
2019-01-24T20:03:31.265Z,0
2019-01-24T20:06:30.898Z,0
2019-01-24T20:09:31.505Z,0
2019-01-24T20:12:31.106Z,0
2019-01-24T20:15:33.820Z,0
2019-01-24T20:18:30.749Z,0
2019-01-24T20:21:31.361Z,0
2019-01-24T20:24:30.725Z,0
2019-01-24T20:27:31.284Z,0
2019-01-24T20:30:32.545Z,0
2019-01-24T20:33:31.014Z,0
2019-01-24T20:36:32.381Z,0
2019-01-24T20:39:30.949Z,0
2019-01-24T20:42:30.646Z,0
2019-01-24T20:45:31.814Z,0
2019-01-24T20:48:30.654Z,0
2019-01-24T20:51:31.114Z,0
2019-01-24T20:54:30.795Z,0
2019-01-24T20:57:30.242Z,0
2019-01-24T21:00:30.945Z,0
2019-01-24T21:03:30.638Z,0
2019-01-24T21:06:31.139Z,0
2019-01-24T21:09:30.887Z,0
2019-01-24T21:12:30.239Z,0
2019-01-24T21:15:30.841Z,0
2019-01-24T21:18:32.420Z,0
2019-01-24T21:21:30.949Z,0
2019-01-24T21:24:30.530Z,0
2019-01-24T21:27:31.258Z,0
2019-01-24T21:30:34.125Z,0
2019-01-24T21:33:30.605Z,0
2019-01-24T21:36:31.202Z,0
2019-01-24T21:39:37.801Z,0
2019-01-24T21:42:30.312Z,0
2019-01-24T21:45:33.136Z,0
2019-01-24T21:48:30.584Z,0
2019-01-24T21:51:31.776Z,0
2019-01-24T21:54:31.260Z,0
2019-01-24T21:57:30.750Z,0
2019-01-24T22:00:32.192Z,0
2019-01-24T22:03:30.710Z,0
2019-01-24T22:06:31.479Z,0
2019-01-24T22:09:31.680Z,0
2019-01-24T22:12:31.103Z,0
2019-01-24T22:15:32.475Z,0
2019-01-24T22:18:31.165Z,0
2019-01-24T22:21:30.739Z,0
2019-01-24T22:24:31.119Z,0
2019-01-24T22:27:30.641Z,0
2019-01-24T22:30:34.516Z,0
2019-01-24T22:33:31.183Z,0
2019-01-24T22:36:30.819Z,0
2019-01-24T22:39:36.421Z,0
2019-01-24T22:42:31.023Z,0
2019-01-24T22:45:30.844Z,0
2019-01-24T22:48:30.212Z,0
2019-01-24T22:51:30.649Z,0
2019-01-24T22:54:31.026Z,0
2019-01-24T22:57:30.312Z,0
2019-01-24T23:01:00.843Z,0
2019-01-24T23:03:37.359Z,0
2019-01-24T23:06:30.713Z,0
2019-01-24T23:09:31.041Z,0
2019-01-24T23:12:30.528Z,0
2019-01-24T23:15:31.578Z,0
2019-01-24T23:18:31.069Z,0
2019-01-24T23:21:30.680Z,0
2019-01-24T23:24:30.943Z,0
2019-01-24T23:27:30.410Z,0
2019-01-24T23:30:31.131Z,0
2019-01-24T23:33:30.448Z,0
2019-01-24T23:36:31.215Z,0
2019-01-24T23:39:30.971Z,0
2019-01-24T23:42:30.546Z,0
2019-01-24T23:45:30.863Z,0
2019-01-24T23:48:30.171Z,0
2019-01-24T23:51:30.514Z,0
2019-01-24T23:54:31.011Z,0
2019-01-24T23:57:31.015Z,0
